Hovedside
METAR-TAF:

METAR-TAF

Lufthavner :

Victoria, Mahé, Seychellene

breddegrad: 04-40S, lengdegrad: 055-31E, høyde over havet: 3 m

Gjeldene værobservasjon

Denne rapporten ble laget for 8 minutter siden, klokken 21:30 UTC
Vind 4 kt fra Vest, skiftende mellom Sørvest og Vest-nordvest
Temperatur 26°C
Luftfuktighet 89%
Trykk 1009 hPa
Sikt 10 km eller mer

METAR: FSIA 182130Z AUTO 27004KT 220V300 9999 BKN016/// OVC042/// 26/24 Q1009

Tid: 01:38 (21:38 UTC)

Varsel

Denne rapporten ble laget for 4 timer og 37 minutter siden, klokken 17:01 UTC
Varsel gyldig fra 18. klokken 18 UTC til 19. klokken 18 UTC
Vind 15 kt fra Nord-nordvest
Sikt 10 km eller mer
Spredte skyer i en høyde av 2000 ft
Midlertidig
fra 19. klokken 00 UTC til 19. klokken 12 UTC
Brutte skyer i en høyde av 1800 ft
lette regnbyger
Blir
fra 19. klokken 06 UTC til 19. klokken 08 UTC
Vind 10 kt fra Nord-nordøst

TAF: FSIA 181701Z 1818/1918 33015KT 9999 SCT020 TEMPO 1900/1912 -SHRA BKN018 BECMG 1906/1908 02010KT

Værobservasjoner og værvarsel for over 4000 flyplasser (METAR- og TAF-rapporter).

Tilgjengelige stasjoner er representert av de røde og gule prikkene på kartet.

Hold musepekeren over prikken for å se navnet på stasjonen.

Klikk så for å se værobservasjoner og -varsler.

For å forandre kartet kan du klikke på den grønne knappen med svart kryss for å zoome inn, på den grønne knappen med strek for å zoome ut, eller på de grønne pilene for å se tilstøtende kart.


METAR-TAF: